Time,TemperatureF,DewpointF,PressureIn,WindDirection,WindDirectionDegrees,WindSpeedMPH,WindSpeedGustMPH,Humidity,HourlyPrecipIn,Conditions,Clouds,dailyrainin,SolarRadiationWatts/m^2,SoftwareType,DateUTC
2013-06-28 00:00:00,67.0,64.0,-100.00,SW,225,0.0,-999.0,89,-99.99,,,-99.99,0.000000,,2013-06-28 04:00:00,
2013-06-28 00:43:00,67.0,64.0,-100.00,SW,225,0.0,-999.0,89,-99.99,,,-99.99,0.000000,,2013-06-28 04:43:00,
2013-06-28 00:53:00,67.0,64.0,-100.00,SW,225,0.0,-999.0,89,-99.99,,,-99.99,0.000000,,2013-06-28 04:53:00,
2013-06-28 01:00:00,66.0,63.0,-100.00,ENE,67,1.0,-999.0,91,-99.99,,,-99.99,0.000000,,2013-06-28 05:00:00,
2013-06-28 01:43:00,66.0,63.0,-100.00,ENE,67,1.0,-999.0,91,-99.99,,,-99.99,0.000000,,2013-06-28 05:43:00,
2013-06-28 01:53:00,66.0,63.0,-100.00,ENE,67,1.0,-999.0,91,-99.99,,,-99.99,0.000000,,2013-06-28 05:53:00,
2013-06-28 02:00:00,64.0,62.0,-100.00,SE,135,0.0,-999.0,92,-99.99,,,-99.99,0.000000,,2013-06-28 06:00:00,
2013-06-28 02:43:00,64.0,62.0,-100.00,SE,135,0.0,-999.0,92,-99.99,,,-99.99,0.000000,,2013-06-28 06:43:00,
2013-06-28 02:52:00,64.0,62.0,-100.00,SE,135,0.0,-999.0,92,-99.99,,,-99.99,0.000000,,2013-06-28 06:52:00,
2013-06-28 03:00:00,63.0,61.0,-100.00,SSW,202,1.0,-999.0,93,-99.99,,,-99.99,0.000000,,2013-06-28 07:00:00,
2013-06-28 03:43:00,63.0,61.0,-100.00,SSW,202,1.0,-999.0,93,-99.99,,,-99.99,0.000000,,2013-06-28 07:43:00,
2013-06-28 03:52:00,63.0,61.0,-100.00,SSW,202,1.0,-999.0,93,-99.99,,,-99.99,0.000000,,2013-06-28 07:52:00,
2013-06-28 04:00:00,65.0,63.0,-100.00,WNW,292,2.0,-999.0,94,-99.99,,,-99.99,0.000000,,2013-06-28 08:00:00,
2013-06-28 04:43:00,65.0,63.0,-100.00,WNW,292,2.0,-999.0,94,-99.99,,,-99.99,0.000000,,2013-06-28 08:43:00,
2013-06-28 04:52:00,65.0,63.0,-100.00,WNW,292,2.0,-999.0,94,-99.99,,,-99.99,0.000000,,2013-06-28 08:52:00,
2013-06-28 05:00:00,65.0,64.0,-100.00,WNW,292,4.0,-999.0,95,-99.99,,,-99.99,0.000000,,2013-06-28 09:00:00,
2013-06-28 05:42:00,65.0,64.0,-100.00,WNW,292,4.0,-999.0,95,-99.99,,,-99.99,0.000000,,2013-06-28 09:42:00,
2013-06-28 05:52:00,65.0,64.0,-100.00,WNW,292,4.0,-999.0,95,-99.99,,,-99.99,0.000000,,2013-06-28 09:52:00,
2013-06-28 06:00:00,65.0,64.0,-100.00,West,270,3.0,-999.0,95,-99.99,,,-99.99,0.000000,,2013-06-28 10:00:00,
2013-06-28 06:42:00,65.0,64.0,-100.00,West,270,3.0,-999.0,95,-99.99,,,-99.99,0.000000,,2013-06-28 10:42:00,
2013-06-28 06:52:00,65.0,64.0,-100.00,West,270,3.0,-999.0,95,-99.99,,,-99.99,0.000000,,2013-06-28 10:52:00,
2013-06-28 07:00:00,64.0,63.0,-100.00,WNW,292,0.0,-999.0,94,-99.99,,,-99.99,13.920000,,2013-06-28 11:00:00,
2013-06-28 07:43:00,64.0,63.0,-100.00,WNW,292,0.0,-999.0,94,-99.99,,,-99.99,13.920000,,2013-06-28 11:43:00,
2013-06-28 07:53:00,64.0,63.0,-100.00,WNW,292,0.0,-999.0,94,-99.99,,,-99.99,13.920000,,2013-06-28 11:53:00,
2013-06-28 08:00:00,64.0,62.0,-100.00,West,270,1.0,-999.0,93,-99.99,,,-99.99,46.400002,,2013-06-28 12:00:00,
2013-06-28 08:43:00,64.0,62.0,-100.00,West,270,1.0,-999.0,93,-99.99,,,-99.99,46.400002,,2013-06-28 12:43:00,
2013-06-28 08:52:00,64.0,62.0,-100.00,West,270,1.0,-999.0,93,-99.99,,,-99.99,46.400002,,2013-06-28 12:52:00,
2013-06-28 09:00:00,65.0,62.0,-100.00,WNW,292,1.0,-999.0,91,-99.99,,,-99.99,146.160004,,2013-06-28 13:00:00,
2013-06-28 09:43:00,65.0,62.0,-100.00,WNW,292,1.0,-999.0,91,-99.99,,,-99.99,146.160004,,2013-06-28 13:43:00,
2013-06-28 09:53:00,65.0,62.0,-100.00,WNW,292,1.0,-999.0,91,-99.99,,,-99.99,146.160004,,2013-06-28 13:53:00,
2013-06-28 10:00:00,69.0,63.0,-100.00,West,270,2.0,-999.0,81,-99.99,,,-99.99,361.920013,,2013-06-28 14:00:00,
2013-06-28 10:44:00,69.0,63.0,-100.00,West,270,2.0,-999.0,81,-99.99,,,-99.99,361.920013,,2013-06-28 14:44:00,
2013-06-28 10:53:00,69.0,63.0,-100.00,West,270,2.0,-999.0,81,-99.99,,,-99.99,361.920013,,2013-06-28 14:53:00,
2013-06-28 11:00:00,72.0,61.0,-100.00,WSW,247,2.0,-999.0,67,-99.99,,,-99.99,502.279999,,2013-06-28 15:00:00,
2013-06-28 11:43:00,72.0,61.0,-100.00,WSW,247,2.0,-999.0,67,-99.99,,,-99.99,502.279999,,2013-06-28 15:43:00,
2013-06-28 11:52:00,72.0,61.0,-100.00,WSW,247,2.0,-999.0,67,-99.99,,,-99.99,502.279999,,2013-06-28 15:52:00,
2013-06-28 12:00:00,75.0,60.0,-100.00,SW,225,3.0,-999.0,60,-99.99,,,-99.99,643.799988,,2013-06-28 16:00:00,
2013-06-28 12:44:00,75.0,60.0,-100.00,SW,225,3.0,-999.0,60,-99.99,,,-99.99,643.799988,,2013-06-28 16:44:00,
2013-06-28 12:53:00,75.0,60.0,-100.00,SW,225,3.0,-999.0,60,-99.99,,,-99.99,643.799988,,2013-06-28 16:53:00,
2013-06-28 13:00:00,76.0,61.0,-100.00,WNW,292,5.0,-999.0,58,-99.99,,,-99.99,854.919983,,2013-06-28 17:00:00,
2013-06-28 13:44:00,76.0,61.0,-100.00,WNW,292,5.0,-999.0,58,-99.99,,,-99.99,854.919983,,2013-06-28 17:44:00,
2013-06-28 13:52:00,76.0,61.0,-100.00,WNW,292,5.0,-999.0,58,-99.99,,,-99.99,854.919983,,2013-06-28 17:52:00,
2013-06-28 14:00:00,77.0,60.0,-100.00,WNW,292,5.0,-999.0,55,-99.99,,,-99.99,812.000000,,2013-06-28 18:00:00,
2013-06-28 14:52:00,77.0,60.0,-100.00,WNW,292,5.0,-999.0,55,-99.99,,,-99.99,812.000000,,2013-06-28 18:52:00,
2013-06-28 15:00:00,78.0,60.0,-100.00,WNW,292,5.0,-999.0,54,-99.99,,,-99.99,731.960022,,2013-06-28 19:00:00,
2013-06-28 15:43:00,78.0,60.0,-100.00,WNW,292,5.0,-999.0,54,-99.99,,,-99.99,731.960022,,2013-06-28 19:43:00,
2013-06-28 15:53:00,78.0,60.0,-100.00,WNW,292,5.0,-999.0,54,-99.99,,,-99.99,731.960022,,2013-06-28 19:53:00,
2013-06-28 16:00:00,77.0,60.0,-100.00,WNW,292,7.0,-999.0,56,-99.99,,,-99.99,647.280029,,2013-06-28 20:00:00,
2013-06-28 16:43:00,77.0,60.0,-100.00,WNW,292,7.0,-999.0,56,-99.99,,,-99.99,647.280029,,2013-06-28 20:43:00,
2013-06-28 16:52:00,77.0,60.0,-100.00,WNW,292,7.0,-999.0,56,-99.99,,,-99.99,647.280029,,2013-06-28 20:52:00,
2013-06-28 17:00:00,72.0,59.0,-100.00,WNW,292,6.0,-999.0,63,-99.99,,,-99.99,308.559998,,2013-06-28 21:00:00,
2013-06-28 17:43:00,72.0,59.0,-100.00,WNW,292,6.0,-999.0,63,-99.99,,,-99.99,308.559998,,2013-06-28 21:43:00,
2013-06-28 17:53:00,72.0,59.0,-100.00,WNW,292,6.0,-999.0,63,-99.99,,,-99.99,308.559998,,2013-06-28 21:53:00,
2013-06-28 18:00:00,65.0,59.0,-100.00,SSW,202,4.0,-999.0,82,0.02,,,-99.99,40.599998,,2013-06-28 22:00:00,
2013-06-28 18:43:00,65.0,59.0,-100.00,SSW,202,4.0,-999.0,82,0.02,,,-99.99,40.599998,,2013-06-28 22:43:00,
2013-06-28 18:53:00,65.0,59.0,-100.00,SSW,202,4.0,-999.0,82,0.02,,,-99.99,40.599998,,2013-06-28 22:53:00,
2013-06-28 19:00:00,64.0,61.0,-100.00,WSW,247,1.0,-999.0,90,0.05,,,-99.99,27.840000,,2013-06-28 23:00:00,
2013-06-28 19:34:00,64.0,61.0,-100.00,WSW,247,1.0,-999.0,90,0.05,,,-99.99,27.840000,,2013-06-28 23:34:00,
2013-06-28 19:43:00,64.0,61.0,-100.00,WSW,247,1.0,-999.0,90,0.05,,,-99.99,27.840000,,2013-06-28 23:43:00,
2013-06-28 19:53:00,64.0,61.0,-100.00,WSW,247,1.0,-999.0,90,0.05,,,-99.99,27.840000,,2013-06-28 23:53:00,
2013-06-28 21:00:00,65.0,62.0,-100.00,WSW,247,0.0,-999.0,90,-99.99,,,-99.99,37.119999,,2013-06-29 01:00:00,
2013-06-28 21:32:00,65.0,62.0,-100.00,WSW,247,0.0,-999.0,90,-99.99,,,-99.99,37.119999,,2013-06-29 01:32:00,
2013-06-28 21:42:00,65.0,62.0,-100.00,WSW,247,0.0,-999.0,90,-99.99,,,-99.99,37.119999,,2013-06-29 01:42:00,
2013-06-28 21:52:00,65.0,62.0,-100.00,WSW,247,0.0,-999.0,90,-99.99,,,-99.99,37.119999,,2013-06-29 01:52:00,
2013-06-28 22:00:00,65.0,62.0,-100.00,SSW,202,0.0,-999.0,90,-99.99,,,-99.99,3.480000,,2013-06-29 02:00:00,
2013-06-28 22:31:00,65.0,62.0,-100.00,SSW,202,0.0,-999.0,90,-99.99,,,-99.99,3.480000,,2013-06-29 02:31:00,
2013-06-28 22:41:00,65.0,62.0,-100.00,SSW,202,0.0,-999.0,90,-99.99,,,-99.99,3.480000,,2013-06-29 02:41:00,
2013-06-28 22:51:00,65.0,62.0,-100.00,SSW,202,0.0,-999.0,90,-99.99,,,-99.99,3.480000,,2013-06-29 02:51:00,
2013-06-28 23:00:00,63.0,61.0,-100.00,SW,225,0.0,-999.0,92,-99.99,,,-99.99,0.000000,,2013-06-29 03:00:00,
2013-06-28 23:32:00,63.0,61.0,-100.00,SW,225,0.0,-999.0,92,-99.99,,,-99.99,0.000000,,2013-06-29 03:32:00,
2013-06-28 23:41:00,63.0,61.0,-100.00,SW,225,0.0,-999.0,92,-99.99,,,-99.99,0.000000,,2013-06-29 03:41:00,
2013-06-28 23:51:00,63.0,61.0,-100.00,SW,225,0.0,-999.0,92,-99.99,,,-99.99,0.000000,,2013-06-29 03:51:00,